Time;durP1;ratioP1;P1;durP2;ratioP2;P2;SDS_P1;SDS_P2;PMS_P1;PMS_P2;Temp;Humidity;BMP_temperature;BMP_pressure;BME280_temperature;BME280_humidity;BME280_pressure;Samples;Min_cycle;Max_cycle;Signal;HPM_P1;HPM_P2
2023/10/25 00:00:06;;;;;;;2.40;1.38;;;;;;;10.74;100.00;98385.13;334734;28;17970;-79
2023/10/25 00:00:18;;;;;;;2.10;1.50;;;;;;;10.75;100.00;98379.84;334065;28;4583;-79
2023/10/25 00:00:30;;;;;;;2.05;1.50;;;;;;;10.76;100.00;98384.09;334675;28;18395;-79
2023/10/25 00:00:42;;;;;;;2.15;1.63;;;;;;;10.77;100.00;98377.19;337899;28;4722;-79
2023/10/25 00:00:54;;;;;;;2.40;1.80;;;;;;;10.77;100.00;98383.22;336136;28;16331;-79
2023/10/25 00:01:07;;;;;;;2.13;1.80;;;;;;;10.77;100.00;98377.19;338448;28;5494;-79
2023/10/25 00:01:19;;;;;;;1.70;1.40;;;;;;;10.76;100.00;98378.91;336681;28;18401;-79
2023/10/25 00:01:32;;;;;;;1.67;1.40;;;;;;;10.78;100.00;98379.69;334001;28;5423;-79
2023/10/25 00:01:44;;;;;;;1.70;1.40;;;;;;;10.81;100.00;98377.84;336551;28;11994;-78
2023/10/25 00:01:57;;;;;;;1.98;1.45;;;;;;;10.82;100.00;98382.13;338786;28;5533;-80
2023/10/25 00:02:09;;;;;;;1.88;1.38;;;;;;;10.81;100.00;98377.84;336116;28;12729;-79
2023/10/25 00:02:21;;;;;;;1.52;1.30;;;;;;;10.82;100.00;98380.34;339997;28;5155;-81
2023/10/25 00:02:33;;;;;;;1.48;1.20;;;;;;;10.82;100.00;98379.53;338835;28;5249;-81
2023/10/25 00:02:45;;;;;;;3.85;1.23;;;;;;;10.81;100.00;98380.47;336018;28;19055;-80
2023/10/25 00:02:57;;;;;;;4.03;1.23;;;;;;;10.81;100.00;98378.69;337377;28;4753;-79
2023/10/25 00:03:12;;;;;;;3.75;1.38;;;;;;;10.79;100.00;98376.16;337415;28;4564;-79
2023/10/25 00:03:24;;;;;;;2.05;1.38;;;;;;;10.80;100.00;98379.59;334768;28;18310;-79
2023/10/25 00:03:37;;;;;;;1.58;1.30;;;;;;;10.82;100.00;98382.13;334586;28;17937;-81
2023/10/25 00:03:49;;;;;;;1.88;1.50;;;;;;;10.80;100.00;98371.78;337252;28;5719;-80
2023/10/25 00:04:01;;;;;;;1.75;1.48;;;;;;;10.82;100.00;98376.91;335271;28;18189;-80
2023/10/25 00:04:13;;;;;;;1.92;1.38;;;;;;;10.81;100.00;98372.66;336760;28;4910;-79
2023/10/25 00:04:26;;;;;;;1.90;1.20;;;;;;;10.82;100.00;98379.53;330173;28;13961;-78
2023/10/25 00:04:38;;;;;;;2.03;1.27;;;;;;;10.81;100.00;98372.66;337949;28;4482;-79
2023/10/25 00:04:56;;;;;;;1.95;1.40;;;;;;;10.82;100.00;98374.31;335843;28;11513;-79
2023/10/25 00:05:08;;;;;;;1.83;1.48;;;;;;;10.82;100.00;98374.31;333939;28;17714;-79
2023/10/25 00:05:21;;;;;;;2.10;1.40;;;;;;;10.81;100.00;98370.88;333148;28;18296;-79
2023/10/25 00:05:33;;;;;;;2.17;1.20;;;;;;;10.84;100.00;98367.28;336022;29;4695;-81
2023/10/25 00:05:45;;;;;;;2.50;1.30;;;;;;;10.84;100.00;98377.69;335902;29;12868;-81
2023/10/25 00:05:57;;;;;;;2.70;1.40;;;;;;;10.85;100.00;98374.16;334391;28;18263;-81
2023/10/25 00:06:09;;;;;;;2.45;1.40;;;;;;;10.83;100.00;98371.66;336596;28;5194;-80
2023/10/25 00:06:21;;;;;;;2.22;1.40;;;;;;;10.83;100.00;98370.81;333546;29;19053;-79
2023/10/25 00:06:33;;;;;;;2.03;1.40;;;;;;;10.83;100.00;98376.00;334929;29;4842;-79
2023/10/25 00:06:45;;;;;;;1.80;1.40;;;;;;;10.84;100.00;98377.69;333379;29;12050;-80
2023/10/25 00:06:58;;;;;;;2.83;1.27;;;;;;;10.84;100.00;98369.88;336786;28;4646;-79
2023/10/25 00:07:10;;;;;;;2.70;1.17;;;;;;;10.84;100.00;98377.69;337390;28;11651;-79
2023/10/25 00:07:22;;;;;;;1.45;1.20;;;;;;;10.85;100.00;98379.38;330687;28;17784;-79
2023/10/25 00:07:34;;;;;;;2.08;1.40;;;;;;;10.85;100.00;98374.16;338659;28;4598;-79
2023/10/25 00:07:47;;;;;;;2.05;1.50;;;;;;;10.85;99.67;98377.59;335752;28;17912;-79
2023/10/25 00:07:59;;;;;;;1.63;1.50;;;;;;;10.85;100.00;98374.16;339107;28;4652;-80
2023/10/25 00:08:11;;;;;;;2.08;1.50;;;;;;;10.87;100.00;98377.53;335788;28;18148;-80
2023/10/25 00:08:23;;;;;;;2.20;1.33;;;;;;;10.87;100.00;98374.94;338926;28;4773;-79
2023/10/25 00:08:35;;;;;;;2.13;1.20;;;;;;;10.86;99.92;98371.47;338763;28;5541;-81
2023/10/25 00:08:47;;;;;;;1.35;1.20;;;;;;;10.86;100.00;98379.25;331154;28;18046;-80
2023/10/25 00:08:59;;;;;;;1.75;1.50;;;;;;;10.86;99.76;98375.81;339043;28;5199;-79
2023/10/25 00:09:11;;;;;;;1.80;1.53;;;;;;;10.87;100.00;98372.31;335834;28;18017;-81
2023/10/25 00:09:23;;;;;;;2.25;1.52;;;;;;;10.85;100.00;98371.56;338615;28;5542;-79
2023/10/25 00:09:35;;;;;;;3.15;1.50;;;;;;;10.83;100.00;98376.00;339815;28;4667;-81
2023/10/25 00:09:48;;;;;;;2.92;1.52;;;;;;;10.83;100.00;98373.41;336402;28;18575;-79
2023/10/25 00:10:03;;;;;;;2.03;1.48;;;;;;;10.84;100.00;98377.69;339025;28;4517;-79
2023/10/25 00:10:15;;;;;;;2.13;1.42;;;;;;;10.83;100.00;98376.00;336315;28;17403;-81
2023/10/25 00:10:27;;;;;;;2.25;1.40;;;;;;;10.84;99.94;98372.47;334210;28;18386;-81
2023/10/25 00:10:39;;;;;;;2.30;1.60;;;;;;;10.84;100.00;98367.28;339024;28;5767;-80
2023/10/25 00:11:08;;;;;;;2.15;1.60;;;;;;;10.84;100.00;98372.47;337739;28;11387;-79
2023/10/25 00:11:21;;;;;;;2.15;1.40;;;;;;;10.82;100.00;98369.13;336689;28;16764;-79
2023/10/25 00:11:33;;;;;;;1.77;1.33;;;;;;;10.83;100.00;98370.81;336384;28;18063;-78
2023/10/25 00:11:45;;;;;;;3.33;1.40;;;;;;;10.84;100.00;98378.50;339331;28;5698;-79
2023/10/25 00:11:57;;;;;;;3.83;1.50;;;;;;;10.84;100.00;98383.69;336748;28;5073;-78
2023/10/25 00:12:09;;;;;;;3.80;1.52;;;;;;;10.83;99.88;98370.81;339177;28;5486;-79
2023/10/25 00:12:23;;;;;;;2.17;1.33;;;;;;;10.83;100.00;98376.00;338808;28;4513;-79
2023/10/25 00:12:37;;;;;;;1.50;1.33;;;;;;;10.82;100.00;98375.16;335488;28;17877;-80
2023/10/25 00:12:49;;;;;;;2.05;1.40;;;;;;;10.82;100.00;98375.16;336358;28;17887;-79
2023/10/25 00:13:01;;;;;;;2.22;1.40;;;;;;;10.81;100.00;98378.69;340081;28;4596;-79
2023/10/25 00:13:13;;;;;;;6.32;1.50;;;;;;;10.82;100.00;98376.91;337069;28;12531;-79
2023/10/25 00:13:25;;;;;;;5.88;1.40;;;;;;;10.82;100.00;98376.91;337845;28;17829;-80
2023/10/25 00:13:37;;;;;;;2.70;1.20;;;;;;;10.82;100.00;98379.53;339083;28;4615;-80
2023/10/25 00:13:49;;;;;;;2.58;1.23;;;;;;;10.81;99.62;98376.09;337578;28;18510;-79
2023/10/25 00:14:03;;;;;;;2.60;1.30;;;;;;;10.82;100.00;98379.53;339840;28;5414;-79
2023/10/25 00:14:15;;;;;;;1.63;1.23;;;;;;;10.82;99.84;98379.53;337138;28;18135;-80
2023/10/25 00:14:27;;;;;;;1.48;1.33;;;;;;;10.83;100.00;98376.00;338960;28;5483;-80
2023/10/25 00:14:41;;;;;;;1.70;1.40;;;;;;;10.83;100.00;98381.22;330711;28;18020;-79
2023/10/25 00:14:53;;;;;;;2.33;1.40;;;;;;;10.84;100.00;98377.69;335626;28;8914;-79
2023/10/25 00:15:06;;;;;;;2.45;1.35;;;;;;;10.86;99.76;98378.44;338138;28;5343;-80
2023/10/25 00:15:18;;;;;;;1.80;1.10;;;;;;;10.83;99.68;98376.00;334754;28;6633;-78
2023/10/25 00:15:31;;;;;;;1.50;1.10;;;;;;;10.82;99.78;98380.34;338268;28;4735;-78
2023/10/25 00:15:43;;;;;;;2.90;1.35;;;;;;;10.82;99.80;98376.91;335624;28;13043;-78
2023/10/25 00:15:55;;;;;;;3.33;1.40;;;;;;;10.81;99.91;98383.06;338706;28;4546;-80
2023/10/25 00:16:07;;;;;;;6.65;1.60;;;;;;;10.82;99.89;98371.72;338715;28;5530;-80
2023/10/25 00:16:19;;;;;;;4.75;1.40;;;;;;;10.85;100.00;98384.56;335043;28;18179;-80
2023/10/25 00:16:31;;;;;;;5.03;1.50;;;;;;;10.84;99.96;98380.28;339162;28;4589;-79
2023/10/25 00:16:43;;;;;;;1.60;1.30;;;;;;;10.85;100.00;98379.38;337827;28;19105;-80
2023/10/25 00:16:56;;;;;;;1.50;1.30;;;;;;;10.85;100.00;98384.56;341532;28;5750;-79
2023/10/25 00:17:08;;;;;;;1.52;1.30;;;;;;;10.84;99.81;98378.50;338299;28;4666;-78
2023/10/25 00:17:20;;;;;;;1.55;1.27;;;;;;;10.85;99.73;98381.97;340532;28;4566;-79
2023/10/25 00:17:32;;;;;;;1.88;1.33;;;;;;;10.82;99.98;98382.94;334742;28;4549;-79
2023/10/25 00:17:44;;;;;;;1.73;1.38;;;;;;;10.83;100.00;98381.22;337195;28;16247;-79
2023/10/25 00:17:56;;;;;;;1.77;1.50;;;;;;;10.80;99.70;98371.78;340026;28;5856;-79
2023/10/25 00:18:08;;;;;;;1.50;1.38;;;;;;;10.82;99.86;98379.53;337959;28;5212;-79
2023/10/25 00:18:20;;;;;;;1.33;1.15;;;;;;;10.85;99.81;98376.78;335384;28;18402;-79
2023/10/25 00:18:32;;;;;;;1.17;1.00;;;;;;;10.85;99.76;98385.41;338827;28;4847;-79
2023/10/25 00:18:44;;;;;;;1.15;1.05;;;;;;;10.83;99.42;98376.00;336023;28;18286;-78
2023/10/25 00:18:56;;;;;;;2.08;1.35;;;;;;;10.82;99.64;98375.16;332756;28;4844;-79
2023/10/25 00:19:09;;;;;;;2.58;1.50;;;;;;;10.82;99.55;98376.91;334706;28;14599;-78
2023/10/25 00:19:21;;;;;;;1.83;1.23;;;;;;;10.79;99.41;98375.34;336003;28;5145;-79
2023/10/25 00:19:33;;;;;;;1.80;0.98;;;;;;;10.81;100.00;98373.50;338731;28;4858;-79
2023/10/25 00:19:45;;;;;;;1.70;1.00;;;;;;;10.83;99.48;98381.22;334626;28;17991;-80
2023/10/25 00:19:57;;;;;;;2.50;1.10;;;;;;;10.82;99.34;98379.53;337633;28;5404;-79
2023/10/25 00:20:09;;;;;;;3.13;1.17;;;;;;;10.81;99.86;98375.25;336999;28;16381;-80
2023/10/25 00:20:22;;;;;;;2.53;1.20;;;;;;;10.81;99.57;98375.25;336192;28;18436;-79
2023/10/25 00:20:35;;;;;;;1.50;1.30;;;;;;;10.79;99.80;98373.56;333902;28;4944;-80
2023/10/25 00:20:47;;;;;;;1.55;1.20;;;;;;;10.82;99.69;98374.31;333736;28;18260;-80
2023/10/25 00:20:59;;;;;;;1.70;1.20;;;;;;;10.80;99.99;98377.00;336755;28;5479;-79
2023/10/25 00:21:11;;;;;;;1.90;1.27;;;;;;;10.81;100.00;98370.06;335561;28;10410;-80
2023/10/25 00:21:23;;;;;;;2.10;1.45;;;;;;;10.83;99.99;98376.00;339583;28;5127;-79
2023/10/25 00:21:35;;;;;;;2.40;1.50;;;;;;;10.82;99.79;98376.91;335762;28;4659;-78
2023/10/25 00:21:47;;;;;;;2.63;1.38;;;;;;;10.78;99.69;98374.50;333836;28;4735;-78
2023/10/25 00:21:59;;;;;;;2.20;1.25;;;;;;;10.77;99.38;98377.19;338833;28;4572;-79
2023/10/25 00:22:12;;;;;;;2.35;1.30;;;;;;;10.77;99.73;98377.19;334335;28;17050;-79
2023/10/25 00:22:24;;;;;;;1.70;1.30;;;;;;;10.74;99.81;98370.34;338624;28;4921;-79
2023/10/25 00:22:36;;;;;;;1.60;1.25;;;;;;;10.74;99.85;98367.75;334252;28;18853;-80
2023/10/25 00:22:48;;;;;;;1.52;1.20;;;;;;;10.75;99.96;98376.41;338737;28;4618;-80
2023/10/25 00:23:00;;;;;;;1.92;1.30;;;;;;;10.76;99.85;98376.31;336394;28;5369;-79
2023/10/25 00:23:12;;;;;;;1.90;1.30;;;;;;;10.76;99.67;98370.28;337429;28;4836;-80
2023/10/25 00:23:24;;;;;;;2.03;1.30;;;;;;;10.77;99.46;98372.81;336660;28;5049;-80
2023/10/25 00:23:36;;;;;;;1.65;1.20;;;;;;;10.74;99.40;98367.75;334738;28;17954;-80
2023/10/25 00:23:48;;;;;;;1.80;1.20;;;;;;;10.77;99.77;98372.81;336708;28;4604;-80
2023/10/25 00:24:00;;;;;;;1.73;1.10;;;;;;;10.79;99.42;98370.97;334934;28;4632;-79
2023/10/25 00:24:12;;;;;;;1.70;1.10;;;;;;;10.79;99.72;98376.16;337752;28;4644;-80
2023/10/25 00:24:24;;;;;;;1.80;1.25;;;;;;;10.79;99.46;98373.56;336592;28;5323;-80
2023/10/25 00:24:36;;;;;;;1.65;1.40;;;;;;;10.81;99.76;98367.47;333935;28;4945;-80
2023/10/25 00:24:48;;;;;;;1.90;1.50;;;;;;;10.81;99.72;98370.06;332606;28;4681;-79
2023/10/25 00:25:00;;;;;;;1.70;1.40;;;;;;;10.82;99.63;98374.31;337665;28;4693;-79
2023/10/25 00:25:12;;;;;;;1.88;1.50;;;;;;;10.83;99.17;98376.00;334260;28;17986;-81
2023/10/25 00:25:24;;;;;;;1.67;1.48;;;;;;;10.83;99.28;98376.00;338941;28;4594;-80
2023/10/25 00:25:36;;;;;;;1.60;1.23;;;;;;;10.82;99.60;98369.13;337001;28;13069;-80
2023/10/25 00:25:49;;;;;;;1.40;1.20;;;;;;;10.81;99.51;98370.06;338876;28;5248;-79
2023/10/25 00:26:01;;;;;;;1.45;1.30;;;;;;;10.82;99.26;98369.13;339826;28;16291;-81
2023/10/25 00:26:13;;;;;;;1.50;1.35;;;;;;;10.83;99.53;98371.66;337583;28;17875;-80
2023/10/25 00:26:25;;;;;;;1.40;1.27;;;;;;;10.84;99.21;98372.47;341068;28;4483;-81
2023/10/25 00:26:37;;;;;;;1.38;1.25;;;;;;;10.83;99.66;98366.44;337265;28;19360;-80
2023/10/25 00:26:50;;;;;;;1.60;1.40;;;;;;;10.85;99.24;98368.97;341422;28;4658;-80
2023/10/25 00:27:03;;;;;;;1.63;1.42;;;;;;;10.85;99.51;98368.97;338086;28;18267;-79
2023/10/25 00:27:15;;;;;;;1.67;1.38;;;;;;;10.85;99.27;98372.41;340650;28;5584;-79
2023/10/25 00:27:27;;;;;;;1.88;1.45;;;;;;;10.85;99.56;98375.00;335307;28;17944;-79
2023/10/25 00:27:39;;;;;;;1.80;1.40;;;;;;;10.84;99.53;98367.28;338043;28;4690;-79
2023/10/25 00:27:51;;;;;;;4.18;1.52;;;;;;;10.86;99.80;98370.63;339195;28;5415;-79
2023/10/25 00:28:03;;;;;;;4.57;1.60;;;;;;;10.85;99.55;98368.97;333753;28;18423;-79
2023/10/25 00:28:16;;;;;;;4.72;1.60;;;;;;;10.86;99.49;98365.44;338784;28;4708;-80
2023/10/25 00:28:28;;;;;;;2.17;1.30;;;;;;;10.84;99.73;98368.09;334649;28;16709;-80
2023/10/25 00:28:40;;;;;;;1.85;1.23;;;;;;;10.83;99.45;98370.81;338302;28;5263;-80
2023/10/25 00:28:52;;;;;;;2.55;1.48;;;;;;;10.82;99.60;98361.31;334827;28;13769;-79
2023/10/25 00:29:04;;;;;;;2.58;1.50;;;;;;;10.77;99.87;98367.59;336283;29;4564;-79
2023/10/25 00:29:16;;;;;;;1.92;1.40;;;;;;;10.77;99.72;98359.81;331766;29;4944;-79
2023/10/25 00:29:28;;;;;;;2.20;1.27;;;;;;;10.76;99.83;98365.91;334825;28;17884;-79
2023/10/25 00:29:40;;;;;;;2.13;1.30;;;;;;;10.76;99.88;98365.91;337269;28;5529;-80
2023/10/25 00:29:52;;;;;;;2.08;1.30;;;;;;;10.77;100.00;98361.59;334013;28;11451;-79
2023/10/25 00:30:05;;;;;;;1.70;1.30;;;;;;;10.78;100.00;98358.91;338628;28;4531;-79
2023/10/25 00:30:17;;;;;;;1.65;1.33;;;;;;;10.78;100.00;98369.31;338423;28;4510;-80
2023/10/25 00:30:29;;;;;;;1.70;1.48;;;;;;;10.79;99.73;98360.56;334579;28;16688;-79
2023/10/25 00:30:41;;;;;;;1.70;1.40;;;;;;;10.81;99.91;98359.66;337253;28;5294;-80
2023/10/25 00:30:53;;;;;;;1.60;1.38;;;;;;;10.81;100.00;98362.25;334051;28;18073;-79
2023/10/25 00:31:06;;;;;;;1.35;1.23;;;;;;;10.81;99.75;98362.25;337069;28;5600;-80
2023/10/25 00:31:18;;;;;;;2.03;1.45;;;;;;;10.79;99.81;98365.75;334893;28;10814;-80
2023/10/25 00:31:30;;;;;;;2.25;1.55;;;;;;;10.79;99.90;98360.56;338913;28;4592;-80
2023/10/25 00:31:43;;;;;;;3.28;1.63;;;;;;;10.81;99.89;98364.84;337514;28;4711;-80
2023/10/25 00:31:55;;;;;;;2.80;1.60;;;;;;;10.83;100.00;98355.22;334829;28;18367;-79
2023/10/25 00:32:14;;;;;;;2.45;1.52;;;;;;;10.82;100.00;98353.53;337721;28;4728;-79
2023/10/25 00:32:26;;;;;;;1.92;1.25;;;;;;;10.85;100.00;98358.56;334756;28;17777;-80
2023/10/25 00:32:38;;;;;;;1.80;1.30;;;;;;;10.85;100.00;98361.16;338219;28;5523;-79
2023/10/25 00:32:50;;;;;;;1.95;1.40;;;;;;;10.87;100.00;98356.72;336363;28;18357;-80
2023/10/25 00:33:02;;;;;;;2.17;1.50;;;;;;;10.87;100.00;98361.94;339042;28;4664;-79
2023/10/25 00:33:14;;;;;;;2.13;1.40;;;;;;;10.87;100.00;98357.56;335895;28;18343;-80
2023/10/25 00:33:26;;;;;;;2.25;1.30;;;;;;;10.88;100.00;98363.59;337397;28;5252;-80
2023/10/25 00:33:38;;;;;;;2.08;1.38;;;;;;;10.89;100.00;98360.09;333382;28;4724;-79
2023/10/25 00:33:50;;;;;;;1.73;1.30;;;;;;;10.90;100.00;98357.38;334790;28;16740;-79
2023/10/25 00:34:03;;;;;;;1.92;1.23;;;;;;;10.92;100.00;98357.28;337530;28;4527;-79
2023/10/25 00:34:15;;;;;;;1.65;1.25;;;;;;;10.91;99.80;98368.63;335200;28;17998;-79
2023/10/25 00:34:27;;;;;;;2.03;1.40;;;;;;;10.89;99.54;98360.09;338067;28;4536;-79
2023/10/25 00:34:39;;;;;;;2.08;1.48;;;;;;;10.90;99.76;98362.56;334686;28;16387;-78
2023/10/25 00:34:51;;;;;;;2.03;1.45;;;;;;;10.91;99.47;98360.84;336639;28;4700;-79
2023/10/25 00:35:04;;;;;;;2.13;1.50;;;;;;;10.93;99.84;98366.78;334827;28;4673;-80
2023/10/25 00:35:16;;;;;;;2.45;1.50;;;;;;;10.91;99.43;98366.88;330145;28;5796;-81
2023/10/25 00:35:28;;;;;;;2.00;1.40;;;;;;;10.92;99.97;98365.09;336977;28;5321;-81
2023/10/25 00:35:40;;;;;;;1.90;1.30;;;;;;;10.91;99.79;98363.44;334789;28;11992;-80
2023/10/25 00:35:52;;;;;;;1.95;1.40;;;;;;;10.91;99.75;98368.63;337682;28;4580;-80
2023/10/25 00:36:05;;;;;;;2.08;1.50;;;;;;;10.91;100.00;98366.03;337198;28;7557;-79
2023/10/25 00:36:17;;;;;;;2.08;1.55;;;;;;;10.91;99.64;98366.03;333759;28;17955;-79
2023/10/25 00:36:29;;;;;;;2.03;1.55;;;;;;;10.90;100.00;98366.94;331834;28;4690;-79
2023/10/25 00:36:41;;;;;;;1.92;1.50;;;;;;;10.92;99.80;98365.09;333552;28;18146;-80
2023/10/25 00:36:53;;;;;;;1.98;1.50;;;;;;;10.93;99.94;98366.78;336534;28;4680;-81
2023/10/25 00:37:05;;;;;;;1.80;1.50;;;;;;;10.93;99.78;98369.38;336845;28;18887;-80
2023/10/25 00:37:17;;;;;;;1.70;1.40;;;;;;;10.95;99.32;98367.53;338297;28;5351;-80
2023/10/25 00:37:29;;;;;;;1.63;1.30;;;;;;;10.93;99.65;98369.38;338871;28;6909;-80
2023/10/25 00:37:41;;;;;;;1.75;1.33;;;;;;;10.93;99.28;98369.38;335910;28;17662;-80
2023/10/25 00:37:53;;;;;;;1.98;1.48;;;;;;;10.91;99.47;98363.44;338994;28;5079;-80
2023/10/25 00:38:05;;;;;;;2.35;1.63;;;;;;;10.92;99.54;98370.28;335941;28;18298;-80
2023/10/25 00:38:17;;;;;;;2.20;1.50;;;;;;;10.91;99.33;98368.63;338003;28;5282;-80
2023/10/25 00:38:29;;;;;;;2.33;1.48;;;;;;;10.90;99.15;98366.94;338749;28;4560;-80
2023/10/25 00:38:41;;;;;;;2.10;1.42;;;;;;;10.89;99.44;98370.47;335339;28;17018;-81
2023/10/25 00:38:53;;;;;;;1.58;1.30;;;;;;;10.88;99.77;98368.78;338931;28;4810;-80
2023/10/25 00:39:05;;;;;;;1.67;1.30;;;;;;;10.87;99.54;98374.94;338821;28;5338;-79
2023/10/25 00:39:17;;;;;;;1.88;1.40;;;;;;;10.86;99.58;98371.47;335967;28;17190;-80
2023/10/25 00:39:29;;;;;;;1.73;1.42;;;;;;;10.88;99.83;98371.38;333928;28;5767;-81
2023/10/25 00:39:41;;;;;;;1.75;1.40;;;;;;;10.88;99.62;98369.63;336003;28;6862;-80
2023/10/25 00:39:56;;;;;;;1.70;1.38;;;;;;;10.88;99.61;98366.19;338947;28;4886;-81
2023/10/25 00:40:09;;;;;;;1.67;1.23;;;;;;;10.88;99.81;98366.19;336362;28;18229;-79
2023/10/25 00:40:21;;;;;;;1.77;1.40;;;;;;;10.89;99.46;98370.47;335686;28;16192;-80
2023/10/25 00:40:34;;;;;;;1.95;1.40;;;;;;;10.90;99.90;98372.97;338577;28;4516;-79
2023/10/25 00:40:46;;;;;;;1.80;1.30;;;;;;;10.92;99.65;98370.28;334554;28;16642;-80
2023/10/25 00:40:58;;;;;;;2.42;1.50;;;;;;;10.92;99.80;98370.28;339057;28;5218;-80
2023/10/25 00:41:10;;;;;;;2.08;1.60;;;;;;;10.91;99.79;98372.06;339135;28;4740;-79
2023/10/25 00:41:22;;;;;;;2.33;1.48;;;;;;;10.93;99.46;98366.78;336221;28;17740;-81
2023/10/25 00:41:34;;;;;;;1.85;1.35;;;;;;;10.92;99.47;98372.91;338434;28;4759;-81
2023/10/25 00:41:46;;;;;;;2.30;1.58;;;;;;;10.93;99.65;98372.00;334414;28;16811;-80
2023/10/25 00:41:58;;;;;;;2.20;1.75;;;;;;;10.92;99.32;98370.28;338923;28;5220;-80
2023/10/25 00:42:10;;;;;;;1.95;1.60;;;;;;;10.91;99.59;98372.06;338862;28;4511;-80
2023/10/25 00:42:22;;;;;;;2.65;1.48;;;;;;;10.91;99.44;98369.47;335373;28;18057;-80
2023/10/25 00:42:34;;;;;;;2.83;1.45;;;;;;;10.91;99.98;98371.22;338651;28;5220;-80
2023/10/25 00:42:46;;;;;;;2.63;1.38;;;;;;;10.88;99.70;98363.59;334385;28;18018;-79
2023/10/25 00:43:14;;;;;;;1.95;1.30;;;;;;;10.84;99.40;98368.09;338888;28;4566;-79
2023/10/25 00:43:26;;;;;;;2.10;1.52;;;;;;;10.84;99.52;98367.28;338857;28;17246;-79
2023/10/25 00:43:38;;;;;;;2.10;1.50;;;;;;;10.83;99.82;98370.81;331572;28;18069;-79
2023/10/25 00:43:50;;;;;;;2.70;1.60;;;;;;;10.81;99.99;98373.50;338715;28;4578;-79
2023/10/25 00:44:03;;;;;;;3.05;1.50;;;;;;;10.76;99.80;98370.28;331693;28;5072;-79
2023/10/25 00:44:14;;;;;;;2.53;1.50;;;;;;;10.76;99.69;98371.13;338595;28;4687;-79
2023/10/25 00:44:26;;;;;;;2.42;1.48;;;;;;;10.74;100.00;98367.75;335266;28;12904;-79
2023/10/25 00:44:39;;;;;;;3.30;1.70;;;;;;;10.74;100.00;98372.97;337584;28;18270;-79
2023/10/25 00:44:51;;;;;;;3.38;1.80;;;;;;;10.76;100.00;98371.13;339055;28;5124;-79
2023/10/25 00:45:03;;;;;;;2.58;1.70;;;;;;;10.79;100.00;98370.97;336946;28;18091;-79
2023/10/25 00:45:15;;;;;;;1.95;1.50;;;;;;;10.79;100.00;98368.38;339973;28;4628;-79
2023/10/25 00:45:29;;;;;;;1.83;1.50;;;;;;;10.79;99.74;98365.75;337254;28;18342;-80
2023/10/25 00:45:55;;;;;;;1.60;1.50;;;;;;;10.82;99.66;98369.13;340027;28;5100;-79
2023/10/25 00:46:13;;;;;;;1.65;1.55;;;;;;;10.75;99.84;98369.47;336834;28;17491;-79
2023/10/25 00:46:28;;;;;;;1.83;1.60;;;;;;;10.69;100.00;98366.34;336181;28;17932;-79
2023/10/25 00:46:40;;;;;;;3.05;1.73;;;;;;;10.70;100.00;98361.06;331488;28;17577;-80
2023/10/25 00:46:52;;;;;;;2.97;1.65;;;;;;;10.68;100.00;98365.50;339015;28;4608;-80
2023/10/25 00:47:05;;;;;;;2.40;1.55;;;;;;;10.68;100.00;98368.09;336439;28;18086;-79
2023/10/25 00:47:17;;;;;;;1.80;1.38;;;;;;;10.68;100.00;98367.25;339055;28;4536;-79
2023/10/25 00:47:29;;;;;;;2.60;1.45;;;;;;;10.63;100.00;98359.72;336269;28;18303;-79
2023/10/25 00:47:43;;;;;;;3.80;1.63;;;;;;;10.59;100.00;98368.59;338890;28;4543;-79
2023/10/25 00:47:55;;;;;;;3.22;1.63;;;;;;;10.59;100.00;98368.59;332228;28;17963;-79
2023/10/25 00:48:07;;;;;;;3.10;1.67;;;;;;;10.59;100.00;98369.44;338978;28;4574;-79
2023/10/25 00:48:19;;;;;;;2.50;1.60;;;;;;;10.61;100.00;98365.94;335424;28;17587;-79
2023/10/25 00:48:33;;;;;;;2.05;1.50;;;;;;;10.62;100.00;98372.78;338929;28;5063;-79
2023/10/25 00:48:47;;;;;;;2.20;1.63;;;;;;;10.62;100.00;98372.78;337408;28;19130;-79
2023/10/25 00:49:00;;;;;;;2.22;1.70;;;;;;;10.63;100.00;98369.28;335062;28;18214;-79
2023/10/25 00:49:13;;;;;;;2.00;1.63;;;;;;;10.63;100.00;98366.69;337961;28;10345;-81
2023/10/25 00:49:25;;;;;;;2.20;1.60;;;;;;;10.63;100.00;98367.50;336164;28;18165;-79
2023/10/25 00:49:37;;;;;;;2.30;1.58;;;;;;;10.63;100.00;98364.91;337563;28;4863;-79
2023/10/25 00:49:50;;;;;;;2.35;1.70;;;;;;;10.62;100.00;98372.78;334840;28;18303;-78
2023/10/25 00:50:03;;;;;;;2.20;1.80;;;;;;;10.59;100.00;98366.00;338247;28;5512;-79
2023/10/25 00:50:17;;;;;;;2.00;1.80;;;;;;;10.60;100.00;98370.25;334120;28;18503;-79
2023/10/25 00:50:29;;;;;;;2.70;2.10;;;;;;;10.61;100.00;98371.97;334534;28;12541;-78
2023/10/25 00:50:41;;;;;;;2.92;2.20;;;;;;;10.62;100.00;98376.22;336577;28;4675;-80
2023/10/25 00:50:54;;;;;;;5.53;2.58;;;;;;;10.61;100.00;98371.97;330610;29;4732;-79
2023/10/25 00:51:06;;;;;;;5.20;2.50;;;;;;;10.63;100.00;98364.91;333409;28;18751;-80
2023/10/25 00:51:21;;;;;;;4.70;2.38;;;;;;;10.63;100.00;98374.47;332703;29;10312;-79
2023/10/25 00:51:34;;;;;;;2.97;2.20;;;;;;;10.63;100.00;98374.47;333783;29;19067;-79
2023/10/25 00:51:47;;;;;;;2.95;2.15;;;;;;;10.63;100.00;98374.47;334606;28;18038;-79
2023/10/25 00:51:59;;;;;;;2.50;1.90;;;;;;;10.63;100.00;98374.47;334430;28;18479;-80
2023/10/25 00:52:12;;;;;;;2.78;2.10;;;;;;;10.65;100.00;98364.84;337332;28;4725;-81
2023/10/25 00:52:24;;;;;;;2.80;2.25;;;;;;;10.65;100.00;98370.88;333035;28;12475;-79
2023/10/25 00:52:37;;;;;;;2.85;2.25;;;;;;;10.66;100.00;98369.94;336011;28;5359;-79
2023/10/25 00:52:49;;;;;;;2.60;2.00;;;;;;;10.65;100.00;98368.28;335937;28;11469;-78
2023/10/25 00:53:01;;;;;;;2.25;1.73;;;;;;;10.68;100.00;98365.50;338527;28;4654;-79
2023/10/25 00:53:13;;;;;;;2.10;1.70;;;;;;;10.70;100.00;98365.41;338864;28;4666;-79
2023/10/25 00:53:27;;;;;;;2.40;1.70;;;;;;;10.71;100.00;98367.94;338566;28;17939;-79
2023/10/25 00:53:48;;;;;;;2.75;1.80;;;;;;;10.72;100.00;98367.00;339192;28;12607;-79
2023/10/25 00:54:02;;;;;;;2.35;2.00;;;;;;;10.75;100.00;98366.03;337675;28;17284;-80
2023/10/25 00:54:14;;;;;;;3.65;2.20;;;;;;;10.75;100.00;98364.25;340321;28;5206;-80
2023/10/25 00:54:26;;;;;;;4.38;2.50;;;;;;;10.79;100.00;98364.94;336285;28;18647;-80
2023/10/25 00:54:38;;;;;;;3.72;2.58;;;;;;;10.77;100.00;98367.59;338868;28;5083;-80
2023/10/25 00:54:51;;;;;;;3.08;2.35;;;;;;;10.82;100.00;98369.13;336103;28;18411;-79
2023/10/25 00:55:04;;;;;;;2.85;2.38;;;;;;;10.81;100.00;98367.47;338246;28;4656;-79
2023/10/25 00:55:16;;;;;;;3.15;2.53;;;;;;;10.82;100.00;98366.53;336303;28;16480;-79
2023/10/25 00:55:28;;;;;;;3.20;2.58;;;;;;;10.81;100.00;98368.28;338760;28;4677;-79
2023/10/25 00:55:40;;;;;;;3.33;2.65;;;;;;;10.83;100.00;98370.81;335400;28;16284;-78
2023/10/25 00:55:55;;;;;;;3.10;2.35;;;;;;;10.84;100.00;98373.31;338579;28;4559;-79
2023/10/25 00:56:10;;;;;;;3.13;2.38;;;;;;;10.86;100.00;98370.63;335705;28;17989;-79
2023/10/25 00:56:25;;;;;;;4.25;2.38;;;;;;;10.86;100.00;98371.47;335861;28;17762;-79
2023/10/25 00:56:37;;;;;;;3.67;2.05;;;;;;;10.86;100.00;98371.47;335092;28;17909;-79
2023/10/25 00:56:50;;;;;;;2.85;1.65;;;;;;;10.88;100.00;98374.81;334356;28;5947;-79
2023/10/25 00:57:02;;;;;;;2.85;1.48;;;;;;;10.87;100.00;98367.13;335842;28;18087;-79
2023/10/25 00:57:14;;;;;;;2.80;1.67;;;;;;;10.88;100.00;98379.19;339403;28;4909;-79
2023/10/25 00:57:26;;;;;;;3.35;2.10;;;;;;;10.88;100.00;98379.19;335274;28;18328;-80
2023/10/25 00:57:38;;;;;;;3.45;2.13;;;;;;;10.87;100.00;98374.94;336604;28;4590;-80
2023/10/25 00:57:51;;;;;;;2.63;1.98;;;;;;;10.87;100.00;98374.94;334360;28;4761;-78
2023/10/25 00:58:03;;;;;;;2.53;1.70;;;;;;;10.84;100.00;98377.69;332187;28;4499;-80
2023/10/25 00:58:15;;;;;;;2.55;1.63;;;;;;;10.83;100.00;98374.25;336975;28;5237;-79
2023/10/25 00:58:28;;;;;;;2.78;1.80;;;;;;;10.84;100.00;98377.69;334405;28;18292;-80
2023/10/25 00:58:44;;;;;;;2.22;1.70;;;;;;;10.84;100.00;98367.28;337714;28;5389;-79
2023/10/25 00:58:57;;;;;;;1.75;1.33;;;;;;;10.86;100.00;98373.22;336795;28;17995;-79
2023/10/25 00:59:10;;;;;;;1.65;1.25;;;;;;;10.85;100.00;98371.56;338527;28;4537;-79
2023/10/25 00:59:23;;;;;;;1.77;1.23;;;;;;;10.85;100.00;98379.38;330089;28;18364;-80
2023/10/25 00:59:35;;;;;;;1.90;1.30;;;;;;;10.85;100.00;98375.00;339141;28;4732;-79
2023/10/25 00:59:47;;;;;;;2.05;1.38;;;;;;;10.86;100.00;98370.63;334746;28;18165;-79
2023/10/25 01:00:00;;;;;;;3.25;1.40;;;;;;;10.85;100.00;98374.16;336977;28;4605;-78